This is the latest recevied weather packets stored in our database for station/object PU3XGS-13. If no packets are shown the sender has not sent any weather packets the latest 10 day(s).
| Time | Temp. | Humidity | Pressure | Rain* | Wind** | Luminosity | Snow |
|---|---|---|---|---|---|---|---|
| 1778100993 | 32.78° C | 49% | 1011.7 hPa | - | - | - | - |
| 1778098593 | 33.89° C | 43% | 1011.6 hPa | - | - | - | - |
| 1778096193 | 34.44° C | 40% | 1011.6 hPa | - | - | - | - |
| 1778093794 | 35° C | 39% | 1011.7 hPa | - | - | - | - |
| 1778091393 | 36.11° C | 37% | 1011.9 hPa | - | - | - | - |
| 1778088993 | 36.67° C | 36% | 1012.4 hPa | - | - | - | - |
| 1778086593 | 37.22° C | 35% | 1012.8 hPa | - | - | - | - |
| 1778084194 | 36.11° C | 37% | 1013.6 hPa | - | - | - | - |
| 1778081793 | 36.11° C | 38% | 1014.4 hPa | - | - | - | - |
| 1778079393 | 34.44° C | 43% | 1015.1 hPa | - | - | - | - |
| 1778076993 | 33.89° C | 44% | 1015.6 hPa | - | - | - | - |
| 1778074593 | 32.22° C | 48% | 1016.2 hPa | - | - | - | - |
| 1778072194 | 30.56° C | 50% | 1016.8 hPa | - | - | - | - |
| 1778069793 | 26.11° C | 61% | 1016.9 hPa | - | - | - | - |
| 1778067393 | 26.11° C | 60% | 1016.6 hPa | - | - | - | - |
| 1778064993 | 23.89° C | 67% | 1016.4 hPa | - | - | - | - |
| 1778062593 | 23.89° C | 66% | 1016 hPa | - | - | - | - |
| 1778060193 | 23.89° C | 66% | 1015.8 hPa | - | - | - | - |
| 1778057793 | 25° C | 63% | 1015.7 hPa | - | - | - | - |
| 1778055393 | 25.56° C | 62% | 1015.4 hPa | - | - | - | - |
| 1778052993 | 25.56° C | 62% | 1016 hPa | - | - | - | - |
| 1778050593 | 25.56° C | 62% | 1016.1 hPa | - | - | - | - |
| 1778048193 | 25.56° C | 62% | 1016.3 hPa | - | - | - | - |
| 1778045793 | 26.11° C | 61% | 1016.6 hPa | - | - | - | - |
| 1778043393 | 26.67° C | 60% | 1016.7 hPa | - | - | - | - |
* Rain since midnight (hover to see other rain measurements)
** Current wind speed in m/s (hover to see current wind gust speed)